Time;durP1;ratioP1;P1;durP2;ratioP2;P2;SDS_P1;SDS_P2;PMS_P1;PMS_P2;Temp;Humidity;BMP_temperature;BMP_pressure;BME280_temperature;BME280_humidity;BME280_pressure;Samples;Min_cycle;Max_cycle;Signal;HPM_P1;HPM_P2
2023/12/14 00:00:40;;;;;;;19.10;12.30;;;4.60;67.30;;;;;;5069872;28;20262;-86
2023/12/14 00:03:07;;;;;;;17.10;11.35;;;4.40;99.90;;;;;;5076562;28;20247;-86
2023/12/14 00:05:35;;;;;;;20.38;11.93;;;4.70;99.90;;;;;;5066830;28;20278;-87
2023/12/14 00:08:03;;;;;;;18.85;13.80;;;4.60;75.80;;;;;;5062067;28;20549;-87
2023/12/14 00:10:30;;;;;;;21.55;12.82;;;4.50;47.50;;;;;;5066375;28;20223;-87
2023/12/14 00:12:56;;;;;;;17.02;11.55;;;4.50;51.10;;;;;;5075756;28;20238;-86
2023/12/14 00:15:23;;;;;;;24.73;12.88;;;4.50;49.20;;;;;;5076535;28;20203;-87
2023/12/14 00:17:50;;;;;;;19.25;12.05;;;4.50;39.20;;;;;;5065910;28;20290;-88
2023/12/14 00:20:17;;;;;;;17.95;12.30;;;4.80;99.90;;;;;;5063746;28;20209;-88
2023/12/14 00:22:44;;;;;;;21.63;12.95;;;4.60;50.00;;;;;;5068583;28;20226;-88
2023/12/14 00:25:12;;;;;;;18.60;11.02;;;4.50;50.60;;;;;;5064034;28;20207;-87
2023/12/14 00:27:39;;;;;;;19.33;12.15;;;4.50;48.30;;;;;;5063540;28;20289;-89
2023/12/14 00:30:07;;;;;;;23.35;13.27;;;4.40;99.90;;;;;;5060887;28;20249;-87
2023/12/14 00:32:34;;;;;;;23.42;12.05;;;4.40;37.10;;;;;;5071263;28;20249;-87
2023/12/14 00:35:00;;;;;;;23.90;13.70;;;4.50;50.70;;;;;;5077937;28;20183;-86
2023/12/14 00:37:27;;;;;;;22.63;13.20;;;4.50;45.50;;;;;;5078507;28;20199;-86
2023/12/14 00:39:54;;;;;;;23.33;13.40;;;4.40;40.60;;;;;;5061248;28;20735;-86
2023/12/14 00:42:22;;;;;;;27.63;13.68;;;4.40;37.80;;;;;;5058909;28;20714;-86
2023/12/14 00:44:49;;;;;;;21.92;14.40;;;4.30;40.10;;;;;;5059508;28;20214;-86
2023/12/14 00:47:16;;;;;;;28.65;13.93;;;4.40;47.20;;;;;;5064638;28;20274;-88
2023/12/14 00:49:43;;;;;;;20.25;11.00;;;4.30;30.70;;;;;;5065762;28;20205;-85
2023/12/14 00:52:10;;;;;;;22.15;13.05;;;4.20;25.60;;;;;;5062601;28;20222;-87
2023/12/14 00:54:37;;;;;;;26.88;14.50;;;4.30;35.80;;;;;;5059784;28;20199;-87
2023/12/14 00:57:04;;;;;;;25.02;13.65;;;4.20;23.80;;;;;;5062936;28;20213;-88
2023/12/14 00:59:32;;;;;;;20.52;12.27;;;4.20;27.10;;;;;;5061540;28;20275;-88
2023/12/14 01:01:59;;;;;;;26.70;13.45;;;4.20;22.60;;;;;;5061013;28;20239;-87
2023/12/14 01:04:25;;;;;;;23.15;11.90;;;4.10;17.40;;;;;;5058777;28;20747;-87
2023/12/14 01:06:52;;;;;;;15.25;9.48;;;4.10;21.80;;;;;;5058487;28;20206;-87
2023/12/14 01:09:19;;;;;;;18.10;9.80;;;4.10;15.90;;;;;;5059982;28;20203;-87
2023/12/14 01:11:46;;;;;;;24.25;13.13;;;4.10;16.10;;;;;;5058396;28;20707;-86
2023/12/14 01:14:13;;;;;;;21.50;12.02;;;4.10;14.20;;;;;;5067204;28;20275;-86
2023/12/14 01:16:41;;;;;;;21.15;12.05;;;4.10;10.90;;;;;;5070446;28;20209;-87
2023/12/14 01:19:08;;;;;;;23.48;13.50;;;4.00;7.20;;;;;;5065950;28;20266;-86
2023/12/14 01:21:35;;;;;;;17.30;10.70;;;4.10;1.00;;;;;;5068656;28;20282;-86
2023/12/14 01:24:01;;;;;;;17.95;9.27;;;4.00;1.00;;;;;;5059852;28;20202;-86
2023/12/14 01:26:29;;;;;;;16.65;10.70;;;4.00;1.00;;;;;;5059020;28;20294;-86
2023/12/14 01:28:55;;;;;;;16.95;10.00;;;4.00;1.00;;;;;;5059931;28;20313;-86
2023/12/14 01:31:24;;;;;;;17.92;12.23;;;4.00;1.00;;;;;;5058642;28;20313;-88
2023/12/14 01:33:52;;;;;;;20.50;11.68;;;4.00;1.00;;;;;;5058915;28;20226;-86
2023/12/14 01:36:22;;;;;;;19.77;11.80;;;4.10;1.00;;;;;;5066070;28;20238;-85
2023/12/14 01:38:49;;;;;;;18.50;10.45;;;4.10;1.00;;;;;;5067515;28;20261;-88
2023/12/14 01:41:16;;;;;;;20.85;10.93;;;4.20;1.00;;;;;;5076936;28;20215;-85
2023/12/14 01:43:42;;;;;;;19.23;11.68;;;4.10;1.00;;;;;;5071416;28;20256;-87
2023/12/14 01:46:10;;;;;;;20.95;10.77;;;4.10;1.00;;;;;;5057235;28;20213;-86
2023/12/14 01:48:37;;;;;;;21.33;10.57;;;4.10;14.10;;;;;;5056877;28;20207;-86
2023/12/14 01:51:05;;;;;;;18.58;11.10;;;4.10;1.00;;;;;;5057606;28;20309;-86
2023/12/14 01:53:32;;;;;;;15.95;10.45;;;4.10;1.00;;;;;;5072364;28;20226;-86
2023/12/14 01:55:59;;;;;;;17.17;10.68;;;4.00;1.00;;;;;;5074363;28;20226;-84
2023/12/14 01:58:26;;;;;;;15.52;9.40;;;4.10;1.00;;;;;;5074577;28;20234;-86
2023/12/14 02:00:59;;;;;;;12.30;9.25;;;4.10;1.00;;;;;;5075437;28;20223;-86
2023/12/14 02:03:26;;;;;;;19.75;11.35;;;4.10;1.00;;;;;;5062358;28;20746;-87
2023/12/14 02:05:52;;;;;;;20.48;10.27;;;4.00;1.00;;;;;;5060168;28;20211;-86
2023/12/14 02:08:21;;;;;;;18.30;10.70;;;4.00;1.00;;;;;;5060204;28;20202;-88
2023/12/14 02:10:48;;;;;;;19.38;11.43;;;4.10;1.00;;;;;;5066113;28;20211;-85
2023/12/14 02:13:14;;;;;;;14.07;8.65;;;4.00;1.00;;;;;;5077899;28;20194;-84
2023/12/14 02:15:41;;;;;;;15.38;10.13;;;4.00;1.00;;;;;;5071868;28;20195;-86
2023/12/14 02:18:08;;;;;;;15.65;10.23;;;4.00;1.00;;;;;;5061258;28;20242;-87
2023/12/14 02:20:35;;;;;;;10.80;8.60;;;3.90;1.00;;;;;;5058360;28;20223;-87
2023/12/14 02:23:03;;;;;;;18.40;10.15;;;3.90;1.00;;;;;;5062045;28;20253;-87
2023/12/14 02:25:30;;;;;;;17.63;9.95;;;4.00;1.00;;;;;;5065656;28;20199;-87
2023/12/14 02:27:57;;;;;;;14.00;8.65;;;3.90;1.00;;;;;;5056583;28;20242;-85
2023/12/14 02:30:23;;;;;;;11.35;7.40;;;4.30;1.00;;;;;;5058061;28;20587;-87
2023/12/14 02:32:50;;;;;;;14.88;7.85;;;4.00;1.00;;;;;;5057027;28;20202;-87
2023/12/14 02:35:18;;;;;;;9.93;8.10;;;3.90;1.00;;;;;;5056004;28;20302;-87
2023/12/14 02:37:45;;;;;;;15.77;7.75;;;3.90;1.00;;;;;;5059317;28;20207;-87
2023/12/14 02:40:13;;;;;;;13.82;8.07;;;4.00;1.00;;;;;;5060568;28;20260;-87
2023/12/14 02:42:40;;;;;;;12.90;6.57;;;3.80;1.00;;;;;;5064475;28;20290;-88
2023/12/14 02:45:09;;;;;;;11.35;6.75;;;3.80;1.00;;;;;;5063438;28;20207;-87
2023/12/14 02:47:35;;;;;;;9.23;7.35;;;3.90;1.00;;;;;;5064365;28;20270;-87
2023/12/14 02:50:03;;;;;;;10.60;7.45;;;4.20;1.00;;;;;;5074264;28;20210;-88
2023/12/14 02:52:29;;;;;;;10.18;8.23;;;3.80;1.00;;;;;;5070413;28;20183;-87
2023/12/14 02:54:56;;;;;;;9.40;7.28;;;3.80;1.00;;;;;;5064891;28;20202;-88
2023/12/14 02:57:24;;;;;;;10.32;7.47;;;3.80;1.00;;;;;;5063192;28;20203;-87
2023/12/14 02:59:51;;;;;;;13.10;7.75;;;3.70;1.00;;;;;;5062475;28;20199;-87
2023/12/14 03:02:18;;;;;;;12.38;8.55;;;3.70;1.00;;;;;;5065990;28;20231;-87
2023/12/14 03:04:45;;;;;;;12.48;8.80;;;3.80;1.00;;;;;;5065798;28;20209;-86
2023/12/14 03:07:12;;;;;;;13.25;9.52;;;3.60;1.00;;;;;;5060437;28;20199;-87
2023/12/14 03:09:43;;;;;;;14.15;9.25;;;3.70;1.00;;;;;;5058101;28;20199;-87
2023/12/14 03:12:10;;;;;;;14.40;7.80;;;3.50;1.00;;;;;;5070790;28;20223;-86
2023/12/14 03:14:38;;;;;;;14.23;9.65;;;4.20;1.00;;;;;;5074224;28;20218;-86
2023/12/14 03:17:06;;;;;;;14.02;8.90;;;3.70;1.00;;;;;;5075666;28;20203;-88
2023/12/14 03:19:33;;;;;;;11.82;8.18;;;3.60;1.00;;;;;;5075381;28;20238;-87
2023/12/14 03:22:00;;;;;;;13.25;9.10;;;3.60;1.00;;;;;;5077150;28;20287;-87
2023/12/14 03:24:27;;;;;;;14.95;8.57;;;3.70;1.00;;;;;;5076405;28;20297;-87
2023/12/14 03:26:53;;;;;;;19.63;9.95;;;3.60;1.00;;;;;;5077778;28;20226;-87
2023/12/14 03:29:21;;;;;;;20.67;9.95;;;3.60;1.00;;;;;;5069655;28;20312;-87
2023/12/14 03:31:49;;;;;;;13.40;9.63;;;3.60;1.00;;;;;;5065368;28;20227;-87
2023/12/14 03:34:16;;;;;;;15.07;9.82;;;3.60;1.00;;;;;;5080485;28;20247;-87
2023/12/14 03:36:43;;;;;;;14.65;9.50;;;3.60;1.00;;;;;;5076598;28;20267;-87
2023/12/14 03:39:10;;;;;;;13.95;8.75;;;3.60;1.00;;;;;;5067858;28;20277;-87
2023/12/14 03:41:36;;;;;;;12.80;9.80;;;3.60;1.00;;;;;;5067946;28;20763;-87
2023/12/14 03:44:03;;;;;;;19.50;9.98;;;3.70;1.00;;;;;;5064581;28;20290;-86
2023/12/14 03:46:30;;;;;;;17.08;10.45;;;3.60;1.00;;;;;;5061437;28;20286;-87
2023/12/14 03:48:59;;;;;;;17.35;10.55;;;3.60;1.00;;;;;;5060636;28;20646;-87
2023/12/14 03:51:25;;;;;;;12.43;8.88;;;3.80;1.00;;;;;;5059490;28;20222;-87
2023/12/14 03:53:52;;;;;;;15.00;10.02;;;3.60;1.00;;;;;;5059489;28;20282;-87
2023/12/14 03:56:19;;;;;;;15.18;9.68;;;3.60;1.00;;;;;;5057806;28;20203;-88
2023/12/14 03:58:46;;;;;;;19.48;10.10;;;3.60;1.00;;;;;;5062523;28;20207;-87
2023/12/14 04:01:17;;;;;;;12.60;8.90;;;3.80;1.00;;;;;;5067863;28;20233;-87
2023/12/14 04:03:44;;;;;;;14.65;9.70;;;3.60;1.00;;;;;;5063542;28;20706;-87
2023/12/14 04:06:13;;;;;;;16.77;9.55;;;3.60;1.00;;;;;;5057874;28;20213;-87
2023/12/14 04:08:40;;;;;;;16.90;10.07;;;3.60;1.00;;;;;;5058925;28;20213;-87
2023/12/14 04:11:07;;;;;;;17.00;10.45;;;3.60;1.00;;;;;;5058862;28;20223;-87
2023/12/14 04:13:35;;;;;;;14.20;9.00;;;3.60;1.00;;;;;;5057974;28;20228;-87
2023/12/14 04:16:02;;;;;;;16.88;9.77;;;3.60;1.00;;;;;;5058443;28;20207;-87
2023/12/14 04:18:29;;;;;;;15.55;10.15;;;3.60;1.00;;;;;;5058228;28;20209;-87
2023/12/14 04:20:56;;;;;;;16.40;10.25;;;3.60;1.00;;;;;;5058997;28;20229;-87
2023/12/14 04:23:24;;;;;;;19.38;10.30;;;3.60;1.00;;;;;;5059617;28;20223;-87
2023/12/14 04:25:51;;;;;;;11.10;9.20;;;3.60;1.00;;;;;;5059072;28;20203;-87
2023/12/14 04:28:17;;;;;;;15.52;8.90;;;3.60;1.00;;;;;;5059660;28;20206;-87
2023/12/14 04:30:44;;;;;;;17.40;10.05;;;3.60;1.00;;;;;;5059020;28;20253;-87
2023/12/14 04:33:11;;;;;;;15.77;9.90;;;3.30;1.00;;;;;;5060349;28;20235;-87
2023/12/14 04:35:38;;;;;;;13.43;8.48;;;3.60;1.00;;;;;;5061672;28;20291;-87
2023/12/14 04:38:05;;;;;;;17.08;11.57;;;3.60;1.00;;;;;;5062342;28;20202;-87
2023/12/14 04:40:33;;;;;;;11.07;7.93;;;3.90;1.00;;;;;;5063034;28;20286;-87
2023/12/14 04:43:00;;;;;;;13.45;8.15;;;3.70;1.00;;;;;;5061753;28;20250;-87
2023/12/14 04:45:27;;;;;;;13.55;9.25;;;3.60;1.00;;;;;;5062279;28;20229;-88
2023/12/14 04:47:54;;;;;;;13.32;8.73;;;4.40;1.00;;;;;;5067483;28;20293;-87
2023/12/14 04:50:20;;;;;;;16.50;9.32;;;3.30;1.00;;;;;;5059749;28;20209;-86
2023/12/14 04:52:47;;;;;;;14.95;9.05;;;3.60;1.00;;;;;;5060983;28;20201;-87
2023/12/14 04:55:14;;;;;;;12.20;7.90;;;3.60;1.00;;;;;;5060259;28;20203;-86
2023/12/14 04:57:43;;;;;;;11.43;8.32;;;3.60;1.00;;;;;;5060538;28;20633;-87
2023/12/14 05:00:10;;;;;;;12.15;9.63;;;3.40;1.00;;;;;;5059195;28;20203;-86
2023/12/14 05:02:37;;;;;;;11.90;7.53;;;3.60;1.00;;;;;;5060447;28;20234;-86
2023/12/14 05:05:04;;;;;;;13.45;7.13;;;3.70;1.00;;;;;;5059390;28;20670;-86
2023/12/14 05:07:31;;;;;;;10.68;7.90;;;3.70;1.00;;;;;;5059462;28;20270;-87
2023/12/14 05:09:58;;;;;;;11.25;9.18;;;3.60;1.00;;;;;;5065185;28;20212;-88
2023/12/14 05:12:26;;;;;;;14.50;9.00;;;3.60;1.00;;;;;;5074908;28;20217;-86
2023/12/14 05:14:54;;;;;;;12.35;7.50;;;3.60;1.00;;;;;;5072636;28;20655;-87
2023/12/14 05:17:21;;;;;;;12.43;8.07;;;3.60;1.00;;;;;;5069086;28;20293;-86
2023/12/14 05:19:48;;;;;;;14.18;8.88;;;3.60;1.00;;;;;;5059509;28;20270;-86
2023/12/14 05:22:15;;;;;;;11.77;8.18;;;3.80;1.00;;;;;;5059241;28;20223;-87
2023/12/14 05:24:42;;;;;;;10.50;8.50;;;3.70;1.00;;;;;;5068819;28;20282;-87
2023/12/14 05:27:08;;;;;;;13.07;8.05;;;3.70;1.00;;;;;;5078582;28;20187;-85
2023/12/14 05:29:35;;;;;;;9.32;7.60;;;3.70;1.00;;;;;;5078312;28;20262;-86
2023/12/14 05:32:03;;;;;;;14.57;9.13;;;3.80;1.00;;;;;;5069411;28;20294;-88
2023/12/14 05:34:30;;;;;;;13.18;8.75;;;3.70;1.00;;;;;;5066502;28;20612;-86
2023/12/14 05:36:57;;;;;;;14.13;7.90;;;3.60;1.00;;;;;;5061828;28;20213;-87
2023/12/14 05:39:24;;;;;;;11.20;8.50;;;3.60;1.00;;;;;;5062613;28;20298;-87
2023/12/14 05:41:51;;;;;;;11.77;8.18;;;3.70;1.00;;;;;;5067610;28;20258;-89
2023/12/14 05:44:17;;;;;;;11.35;8.80;;;3.70;1.00;;;;;;5071803;28;20286;-89
2023/12/14 05:46:44;;;;;;;11.93;8.50;;;3.70;1.00;;;;;;5072703;28;20237;-89
2023/12/14 05:49:12;;;;;;;10.07;6.78;;;3.70;1.00;;;;;;5062211;28;20209;-88
2023/12/14 05:51:39;;;;;;;10.35;7.78;;;3.80;1.00;;;;;;5063115;28;20257;-88
2023/12/14 05:54:06;;;;;;;13.00;8.63;;;3.70;1.00;;;;;;5065546;28;20195;-86
2023/12/14 05:56:33;;;;;;;11.93;7.70;;;3.80;1.00;;;;;;5063391;28;20230;-86
2023/12/14 05:59:00;;;;;;;9.75;7.50;;;3.50;1.00;;;;;;5063587;28;20568;-86
2023/12/14 06:01:27;;;;;;;13.73;6.85;;;3.70;1.00;;;;;;5061388;28;20265;-86
2023/12/14 06:03:53;;;;;;;10.23;7.57;;;3.70;1.00;;;;;;5062600;28;20233;-87
2023/12/14 06:06:22;;;;;;;12.13;8.15;;;3.70;1.00;;;;;;5061221;28;20202;-88
2023/12/14 06:08:49;;;;;;;11.82;8.02;;;3.70;1.00;;;;;;5061907;28;20294;-88
2023/12/14 06:11:16;;;;;;;11.85;7.60;;;3.70;1.00;;;;;;5061242;28;20720;-86
2023/12/14 06:13:43;;;;;;;14.18;7.20;;;3.70;1.00;;;;;;5073989;28;20202;-87
2023/12/14 06:16:12;;;;;;;12.55;8.35;;;3.70;1.00;;;;;;5068122;28;20207;-86
2023/12/14 06:18:41;;;;;;;10.73;7.70;;;3.80;1.00;;;;;;5069976;28;20257;-87
2023/12/14 06:21:08;;;;;;;8.68;7.35;;;3.70;1.00;;;;;;5069934;28;20768;-88
2023/12/14 06:23:36;;;;;;;11.60;8.20;;;3.70;1.00;;;;;;5065110;28;20219;-89
2023/12/14 06:26:04;;;;;;;11.15;8.65;;;3.80;1.00;;;;;;5063811;28;20559;-87
2023/12/14 06:28:31;;;;;;;10.73;7.25;;;3.70;1.00;;;;;;5062641;28;20549;-87
2023/12/14 06:30:58;;;;;;;10.50;6.55;;;3.70;1.00;;;;;;5062248;28;20250;-88
2023/12/14 06:33:25;;;;;;;10.15;7.72;;;3.70;1.00;;;;;;5062934;28;20205;-89
2023/12/14 06:35:53;;;;;;;10.65;6.82;;;3.70;1.00;;;;;;5060584;28;20289;-88
2023/12/14 06:38:20;;;;;;;10.60;7.43;;;3.70;1.00;;;;;;5060901;28;20214;-88
2023/12/14 06:40:48;;;;;;;8.07;6.47;;;3.70;1.00;;;;;;5065580;28;20230;-88
2023/12/14 06:43:15;;;;;;;10.95;8.00;;;3.70;1.00;;;;;;5070483;28;20222;-88
2023/12/14 06:45:42;;;;;;;9.88;7.30;;;3.70;1.00;;;;;;5070568;28;20199;-87
2023/12/14 06:48:08;;;;;;;8.93;6.82;;;3.70;1.00;;;;;;5063015;28;20209;-87
2023/12/14 06:50:35;;;;;;;9.70;7.40;;;3.70;1.00;;;;;;5061841;28;20309;-88
2023/12/14 06:53:02;;;;;;;9.45;7.10;;;3.70;1.00;;;;;;5060323;28;20218;-88
2023/12/14 06:55:29;;;;;;;11.73;8.32;;;3.70;1.00;;;;;;5060671;28;20318;-88
2023/12/14 06:57:57;;;;;;;10.10;6.88;;;3.70;1.00;;;;;;5058864;28;20203;-87
2023/12/14 07:00:24;;;;;;;10.73;7.95;;;3.80;1.00;;;;;;5059459;28;20219;-87
2023/12/14 07:02:50;;;;;;;10.40;7.25;;;4.00;1.00;;;;;;5059473;28;20188;-89
2023/12/14 07:05:17;;;;;;;12.80;8.25;;;3.70;1.00;;;;;;5066942;28;20203;-88
2023/12/14 07:07:44;;;;;;;9.23;6.47;;;3.80;1.00;;;;;;5063127;28;20203;-88
2023/12/14 07:10:11;;;;;;;11.73;8.32;;;3.70;1.00;;;;;;5065291;28;20270;-88
2023/12/14 07:12:37;;;;;;;15.05;8.50;;;6.40;1.00;;;;;;5061916;28;20293;-88
2023/12/14 07:15:09;;;;;;;14.02;9.02;;;3.80;1.00;;;;;;5068923;28;20294;-87
2023/12/14 07:17:35;;;;;;;10.70;7.97;;;3.80;1.00;;;;;;5060920;28;20223;-87
2023/12/14 07:20:03;;;;;;;12.63;9.20;;;;;;;;;;5079020;28;20229;-87
2023/12/14 07:22:29;;;;;;;10.98;7.78;;;4.10;1.00;;;;;;5061724;28;20203;-87
2023/12/14 07:24:56;;;;;;;10.60;7.95;;;3.90;1.00;;;;;;5059552;28;20229;-87
2023/12/14 07:27:23;;;;;;;14.43;9.48;;;3.90;1.00;;;;;;5059940;28;20234;-87
2023/12/14 07:29:50;;;;;;;14.00;9.35;;;3.90;1.00;;;;;;5059293;28;20660;-87
2023/12/14 07:32:18;;;;;;;12.52;9.50;;;3.90;1.00;;;;;;5058308;28;20319;-87
2023/12/14 07:34:45;;;;;;;15.02;9.45;;;3.80;1.00;;;;;;5058949;28;20200;-87
2023/12/14 07:37:12;;;;;;;16.50;10.60;;;3.90;1.00;;;;;;5058559;28;20203;-88
2023/12/14 07:39:39;;;;;;;13.73;9.75;;;3.80;1.00;;;;;;5059472;28;20199;-88
2023/12/14 07:42:06;;;;;;;14.25;10.48;;;3.90;1.00;;;;;;5059357;28;20227;-88
2023/12/14 07:44:33;;;;;;;12.77;9.02;;;4.00;1.00;;;;;;5064368;28;20233;-88
2023/12/14 07:47:01;;;;;;;11.13;8.65;;;4.00;1.00;;;;;;5072654;28;20207;-88
2023/12/14 07:49:29;;;;;;;11.48;8.50;;;4.00;1.00;;;;;;5066803;28;20560;-88
2023/12/14 07:51:56;;;;;;;12.18;8.65;;;4.40;1.00;;;;;;5059682;28;20223;-88
2023/12/14 07:54:25;;;;;;;10.57;8.25;;;4.00;1.00;;;;;;5060403;28;20295;-88
2023/12/14 07:56:52;;;;;;;10.65;8.07;;;3.90;1.00;;;;;;5058570;28;20203;-88
2023/12/14 07:59:19;;;;;;;13.50;10.10;;;3.90;1.00;;;;;;5059107;28;20659;-88
2023/12/14 08:01:46;;;;;;;12.25;9.10;;;3.90;1.00;;;;;;5058516;28;20832;-88
2023/12/14 08:04:12;;;;;;;10.90;9.20;;;3.90;1.00;;;;;;5066001;28;20254;-87
2023/12/14 08:06:41;;;;;;;14.75;10.52;;;3.80;1.00;;;;;;5070558;28;20209;-87
2023/12/14 08:09:08;;;;;;;18.10;11.35;;;3.80;1.00;;;;;;5072533;28;20214;-87
2023/12/14 08:11:35;;;;;;;13.98;10.18;;;3.90;1.00;;;;;;5065012;28;20223;-87
2023/12/14 08:14:02;;;;;;;14.80;10.30;;;3.90;99.90;;;;;;5068454;28;20203;-87
2023/12/14 08:16:29;;;;;;;14.32;10.55;;;3.90;99.90;;;;;;5067952;28;20210;-87
2023/12/14 08:18:56;;;;;;;13.15;10.00;;;4.00;99.90;;;;;;5064716;28;20203;-87
2023/12/14 08:21:23;;;;;;;12.48;9.88;;;3.90;99.90;;;;;;5061567;28;20219;-88
2023/12/14 08:23:51;;;;;;;16.05;10.80;;;3.90;99.90;;;;;;5060421;28;20235;-88
2023/12/14 08:26:18;;;;;;;16.27;10.63;;;3.90;99.90;;;;;;5063472;28;20207;-86
2023/12/14 08:28:45;;;;;;;18.50;11.85;;;3.90;99.90;;;;;;5064219;28;20234;-87
2023/12/14 08:31:12;;;;;;;18.38;11.20;;;4.20;1.00;;;;;;5062700;28;20226;-87
2023/12/14 08:33:38;;;;;;;14.68;10.02;;;3.90;1.00;;;;;;5063655;28;20230;-87
2023/12/14 08:36:06;;;;;;;17.02;12.05;;;3.90;99.90;;;;;;5070582;28;20266;-88
2023/12/14 08:38:33;;;;;;;17.25;10.70;;;3.90;99.90;;;;;;5067324;28;20207;-87
2023/12/14 08:41:01;;;;;;;19.33;11.85;;;3.90;1.00;;;;;;5060233;28;20229;-87
2023/12/14 08:43:28;;;;;;;15.32;11.52;;;4.00;1.00;;;;;;5061148;28;20214;-88
2023/12/14 08:45:55;;;;;;;17.67;11.75;;;4.10;1.00;;;;;;5061614;28;20609;-88
2023/12/14 08:48:22;;;;;;;16.73;11.43;;;4.10;1.00;;;;;;5061087;28;20577;-88
2023/12/14 08:50:49;;;;;;;13.77;12.18;;;3.90;99.90;;;;;;5066643;28;20265;-88
2023/12/14 08:53:15;;;;;;;15.93;10.98;;;4.00;99.90;;;;;;5059417;28;20702;-87
2023/12/14 08:55:42;;;;;;;15.43;11.10;;;3.90;99.90;;;;;;5068629;28;20199;-86
2023/12/14 08:58:12;;;;;;;17.63;12.57;;;3.90;99.90;;;;;;5058644;28;20264;-87
2023/12/14 09:00:39;;;;;;;18.15;12.90;;;3.90;99.90;;;;;;5057990;28;20241;-86
2023/12/14 09:03:06;;;;;;;19.98;11.55;;;4.00;99.90;;;;;;5058730;28;20219;-87
2023/12/14 09:05:33;;;;;;;19.40;11.25;;;4.00;99.90;;;;;;5057983;28;20229;-87
2023/12/14 09:07:59;;;;;;;18.63;12.57;;;4.00;99.90;;;;;;5057730;28;20551;-87
2023/12/14 09:10:26;;;;;;;15.43;10.40;;;4.00;99.90;;;;;;5057727;28;20313;-87
2023/12/14 09:12:53;;;;;;;16.95;12.05;;;4.10;99.90;;;;;;5077201;28;20217;-86
2023/12/14 09:15:21;;;;;;;17.83;11.55;;;4.00;99.90;;;;;;5062369;28;20203;-87
2023/12/14 09:17:48;;;;;;;15.98;11.68;;;4.00;99.90;;;;;;5058064;28;20206;-86
2023/12/14 09:20:15;;;;;;;12.75;10.30;;;3.80;99.90;;;;;;5059409;28;20203;-86
2023/12/14 09:22:42;;;;;;;18.23;11.95;;;4.00;99.90;;;;;;5058852;28;20257;-87
2023/12/14 09:25:09;;;;;;;16.45;10.70;;;4.00;99.90;;;;;;5057709;28;20294;-87
2023/12/14 09:27:36;;;;;;;13.90;10.90;;;4.00;99.90;;;;;;5058033;28;20226;-86
2023/12/14 09:30:04;;;;;;;14.50;10.65;;;3.90;99.90;;;;;;5060708;28;20297;-86
2023/12/14 09:32:32;;;;;;;16.58;11.27;;;4.10;99.90;;;;;;5059626;28;20260;-86
2023/12/14 09:34:59;;;;;;;19.35;12.77;;;4.20;99.90;;;;;;5060144;28;20203;-86
2023/12/14 09:37:26;;;;;;;14.73;10.45;;;4.10;99.90;;;;;;5068144;28;20265;-86
2023/12/14 09:39:53;;;;;;;13.82;9.70;;;4.20;99.90;;;;;;5077513;28;20218;-87
2023/12/14 09:42:21;;;;;;;15.50;9.80;;;4.10;99.90;;;;;;5077592;28;20267;-86
2023/12/14 09:44:49;;;;;;;10.80;8.85;;;4.50;99.90;;;;;;5076822;28;20227;-85
2023/12/14 09:47:16;;;;;;;15.70;10.48;;;4.30;99.90;;;;;;5072196;28;20209;-87
2023/12/14 09:49:45;;;;;;;12.50;9.07;;;4.20;99.90;;;;;;5074016;28;20282;-87
2023/12/14 09:52:12;;;;;;;12.35;10.05;;;4.10;99.90;;;;;;5066010;28;20645;-87
2023/12/14 09:54:40;;;;;;;10.98;8.40;;;4.00;99.90;;;;;;5065770;28;20209;-87
2023/12/14 09:57:07;;;;;;;15.80;9.98;;;4.00;99.90;;;;;;5064346;28;20209;-87
2023/12/14 09:59:34;;;;;;;19.92;9.50;;;4.20;99.90;;;;;;5065975;28;20247;-88
2023/12/14 10:02:11;;;;;;;11.32;8.75;;;4.20;99.90;;;;;;5071767;28;20258;-87
2023/12/14 10:04:38;;;;;;;10.23;8.20;;;4.10;99.90;;;;;;5073681;28;20213;-87
2023/12/14 10:07:09;;;;;;;11.88;8.45;;;4.10;99.90;;;;;;5067492;28;20267;-87
2023/12/14 10:09:38;;;;;;;10.48;7.85;;;4.10;98.00;;;;;;5065244;28;20230;-86
2023/12/14 10:12:07;;;;;;;11.50;7.18;;;4.00;65.30;;;;;;5065542;28;20219;-85
2023/12/14 10:14:35;;;;;;;13.82;8.77;;;3.90;99.90;;;;;;5065550;28;20203;-87
2023/12/14 10:17:17;;;;;;;11.10;8.07;;;4.10;76.50;;;;;;5064328;28;20238;-86
2023/12/14 10:19:47;;;;;;;13.10;9.40;;;4.20;99.90;;;;;;5064767;28;20183;-85
2023/12/14 10:22:17;;;;;;;11.85;9.90;;;4.30;99.90;;;;;;5064584;28;20282;-87
2023/12/14 10:24:44;;;;;;;12.65;9.52;;;4.30;99.90;;;;;;5071743;28;20199;-87
2023/12/14 10:27:11;;;;;;;14.48;8.57;;;4.20;99.90;;;;;;5067533;28;20207;-87
2023/12/14 10:29:39;;;;;;;13.77;10.15;;;4.20;99.90;;;;;;5072993;28;20227;-86
2023/12/14 10:32:08;;;;;;;11.93;9.70;;;4.10;85.60;;;;;;5075238;28;20219;-86
2023/12/14 10:34:36;;;;;;;12.95;9.80;;;4.20;99.90;;;;;;5063671;28;20203;-86
2023/12/14 10:37:06;;;;;;;13.05;9.48;;;4.30;99.90;;;;;;5067051;28;20210;-87
2023/12/14 10:39:36;;;;;;;12.90;8.88;;;4.20;99.90;;;;;;5066612;28;20273;-87
2023/12/14 10:42:04;;;;;;;13.70;9.15;;;4.10;99.00;;;;;;5066095;28;20598;-86
2023/12/14 10:44:36;;;;;;;15.60;11.48;;;4.20;99.90;;;;;;5065553;28;20215;-87
2023/12/14 10:47:07;;;;;;;18.33;11.43;;;4.10;99.90;;;;;;5064447;28;20222;-86
2023/12/14 10:49:35;;;;;;;12.68;9.30;;;3.90;80.70;;;;;;5065989;28;20191;-87
2023/12/14 10:52:04;;;;;;;14.65;9.93;;;4.10;25.80;;;;;;5065156;28;20281;-87
2023/12/14 10:54:33;;;;;;;15.30;11.52;;;4.20;41.20;;;;;;5064722;28;20195;-88
2023/12/14 10:57:03;;;;;;;18.55;10.85;;;4.40;39.20;;;;;;5069735;28;20214;-86
2023/12/14 10:59:32;;;;;;;18.60;12.70;;;4.20;1.00;;;;;;5077624;28;20210;-86
2023/12/14 11:01:59;;;;;;;16.05;11.77;;;4.20;1.00;;;;;;5076665;28;20235;-86
2023/12/14 11:04:27;;;;;;;16.50;10.90;;;4.10;1.00;;;;;;5078272;28;20183;-84
2023/12/14 11:06:54;;;;;;;18.42;11.88;;;4.20;68.80;;;;;;5080101;28;20219;-85
2023/12/14 11:09:24;;;;;;;13.68;10.25;;;4.30;1.00;;;;;;5079323;28;20214;-86
2023/12/14 11:11:59;;;;;;;16.63;11.93;;;4.20;1.00;;;;;;5077758;28;20203;-86
2023/12/14 11:14:28;;;;;;;16.45;10.85;;;4.20;1.00;;;;;;5067078;28;20213;-86
2023/12/14 11:16:56;;;;;;;17.05;11.15;;;4.10;1.00;;;;;;5064316;28;20293;-87
2023/12/14 11:19:28;;;;;;;22.95;11.95;;;4.10;1.00;;;;;;5065185;28;20199;-86
2023/12/14 11:22:14;;;;;;;18.98;12.73;;;4.10;1.00;;;;;;5064823;28;20234;-87
2023/12/14 11:24:43;;;;;;;16.13;11.60;;;4.10;1.00;;;;;;5066039;28;20424;-87
2023/12/14 11:27:11;;;;;;;16.13;12.50;;;4.20;1.00;;;;;;5064686;28;20207;-88
2023/12/14 11:29:41;;;;;;;17.30;11.95;;;4.20;1.00;;;;;;5065007;28;20257;-87
2023/12/14 11:32:09;;;;;;;18.20;11.77;;;4.20;1.00;;;;;;5064887;28;20617;-87
2023/12/14 11:34:36;;;;;;;14.63;11.48;;;4.20;1.00;;;;;;5064361;28;20663;-88
2023/12/14 11:37:06;;;;;;;15.40;11.55;;;4.20;1.00;;;;;;5063901;28;20203;-88
2023/12/14 11:39:33;;;;;;;16.02;11.00;;;4.30;1.00;;;;;;5064552;28;20200;-86
2023/12/14 11:42:03;;;;;;;16.30;12.73;;;4.20;1.00;;;;;;5069241;28;20672;-85
2023/12/14 11:44:31;;;;;;;17.25;11.45;;;4.30;1.00;;;;;;5075298;28;20195;-87
2023/12/14 11:46:59;;;;;;;15.90;11.30;;;4.20;1.00;;;;;;5074674;28;20207;-87
2023/12/14 11:49:27;;;;;;;16.80;11.73;;;4.20;1.00;;;;;;5075647;28;20190;-86
2023/12/14 11:51:55;;;;;;;14.75;9.80;;;4.20;1.00;;;;;;5074971;28;20218;-85
2023/12/14 11:54:22;;;;;;;13.55;10.30;;;4.20;1.00;;;;;;5069334;28;20238;-88
2023/12/14 11:56:50;;;;;;;16.58;10.05;;;4.20;1.00;;;;;;5069152;28;20663;-87
2023/12/14 11:59:17;;;;;;;14.02;10.70;;;4.20;1.00;;;;;;5065792;28;20207;-86
2023/12/14 12:01:56;;;;;;;15.70;11.05;;;4.20;1.00;;;;;;5065523;28;20326;-86
2023/12/14 12:04:25;;;;;;;15.25;10.85;;;4.20;1.00;;;;;;5065168;28;20191;-86
2023/12/14 12:07:00;;;;;;;17.95;10.25;;;4.30;1.00;;;;;;5063904;28;20198;-87
2023/12/14 12:09:35;;;;;;;15.48;11.20;;;4.20;1.00;;;;;;5064358;28;20206;-87
2023/12/14 12:12:02;;;;;;;12.00;9.27;;;4.20;1.00;;;;;;5076605;28;20224;-87
2023/12/14 12:14:29;;;;;;;12.90;10.82;;;4.30;1.00;;;;;;5063442;28;20266;-86
2023/12/14 12:16:55;;;;;;;12.68;10.00;;;4.30;1.00;;;;;;5068133;28;20203;-86
2023/12/14 12:19:23;;;;;;;13.98;9.85;;;4.20;1.00;;;;;;5068384;28;20239;-85
2023/12/14 12:21:50;;;;;;;15.40;11.43;;;4.30;1.00;;;;;;5065248;28;20344;-87
2023/12/14 12:24:17;;;;;;;14.93;9.77;;;4.30;1.00;;;;;;5063139;28;20218;-87
2023/12/14 12:26:44;;;;;;;16.88;12.32;;;4.30;1.00;;;;;;5060062;28;20233;-86
2023/12/14 12:29:11;;;;;;;16.25;10.23;;;4.30;1.00;;;;;;5066619;28;20213;-86
2023/12/14 12:31:39;;;;;;;16.25;11.07;;;4.30;1.00;;;;;;5072573;28;20223;-86
2023/12/14 12:34:06;;;;;;;17.10;11.20;;;4.30;1.00;;;;;;5065664;28;20234;-86
2023/12/14 12:36:34;;;;;;;11.75;10.55;;;4.30;1.00;;;;;;5060053;28;20199;-87
2023/12/14 12:39:01;;;;;;;14.23;11.32;;;4.40;1.00;;;;;;5061319;28;20207;-86
2023/12/14 12:41:28;;;;;;;19.73;13.32;;;4.30;1.00;;;;;;5061465;28;20280;-87
2023/12/14 12:43:55;;;;;;;22.65;13.65;;;4.30;1.00;;;;;;5061676;28;20199;-87
2023/12/14 12:46:22;;;;;;;17.15;12.98;;;4.40;1.00;;;;;;5062125;28;20283;-87
2023/12/14 12:48:51;;;;;;;16.85;11.05;;;4.40;1.00;;;;;;5067662;28;20267;-86
2023/12/14 12:51:18;;;;;;;14.27;10.80;;;4.40;1.00;;;;;;5062795;28;20298;-89